Portada
METAR-TAF:

METAR-TAF

Aeropuertos :

Kédougou, Senegal

latitud: 12-34N, longitud: 012-13W, altitud: 178 m

Observación

El informe se hizo hace 1 hora y 25 minutos, a las 03:00 UTC
Viento calma
Temperatura 23°C
Humedad 33%
Presión 1012 hPa
Visibilidad 10 km o más
sin nubes por debajo de 1500 m y sin presencia de cumulonimbus.

METAR: GOTK 230300Z 00000KT CAVOK 23/06 Q1012

Hora: 04:25 (04:25 UTC)


TAF: falta

Observaciones y pronósticos meteorológicos de más de 4000 aeropuertos (mensajes METAR y TAF).

Los puntos amarillos y rojos representan las estaciones disponibles.

Ponga el ratón en el punto deseado para ver el nombre de la estación.

Haga clic para ver las observaciones y los pronósticos meteorológicos.

Para cambiar el mapa : haga clic en los botones verdes con una cruz de color negro para hacer un zoom, en el botón verde con un guión para alejar o en las flechas verdes para mapas adyacentes.


METAR-TAF: